Time;durP1;ratioP1;P1;durP2;ratioP2;P2;SDS_P1;SDS_P2;PMS_P1;PMS_P2;Temp;Humidity;BMP_temperature;BMP_pressure;BME280_temperature;BME280_humidity;BME280_pressure;Samples;Min_cycle;Max_cycle;Signal;HPM_P1;HPM_P2
2021/07/11 00:00:49;;;;;;;9.95;6.95;;;;;;;14.15;100.00;100667.41;4845044;29;20104;-86
2021/07/11 00:03:14;;;;;;;10.57;7.05;;;;;;;14.14;100.00;100670.94;4861810;29;20121;-86
2021/07/11 00:05:40;;;;;;;10.18;7.20;;;;;;;14.17;100.00;100676.06;4861630;29;20544;-86
2021/07/11 00:08:05;;;;;;;11.80;6.78;;;;;;;14.14;100.00;100676.16;4844848;29;20501;-86
2021/07/11 00:10:31;;;;;;;10.55;6.85;;;;;;;14.09;100.00;100677.19;4844776;29;20082;-86
2021/07/11 00:12:56;;;;;;;11.50;8.23;;;;;;;14.23;100.00;100675.88;4844790;29;20555;-86
2021/07/11 00:15:24;;;;;;;12.07;7.45;;;;;;;14.15;100.00;100672.63;4845054;29;20035;-86
2021/07/11 00:17:51;;;;;;;13.77;7.57;;;;;;;14.20;100.00;100668.13;4844789;29;20036;-86
2021/07/11 00:20:19;;;;;;;10.27;7.25;;;;;;;14.15;100.00;100669.19;4844681;29;20097;-86
2021/07/11 00:22:44;;;;;;;11.55;8.07;;;;;;;14.11;100.00;100660.59;4844619;29;20102;-86
2021/07/11 00:25:13;;;;;;;10.48;7.88;;;;;;;14.15;100.00;100669.19;4861253;29;20029;-86
2021/07/11 00:27:38;;;;;;;10.82;7.90;;;;;;;14.07;100.00;100655.50;4844654;29;20572;-86
2021/07/11 00:30:04;;;;;;;13.50;8.18;;;;;;;14.18;100.00;100662.09;4844761;29;20121;-86
2021/07/11 00:32:30;;;;;;;10.32;7.72;;;;;;;14.24;100.00;100668.91;4861025;29;20029;-86
2021/07/11 00:34:55;;;;;;;11.05;8.15;;;;;;;14.17;100.00;100670.84;4844557;29;20061;-86
2021/07/11 00:37:21;;;;;;;11.70;7.93;;;;;;;14.27;100.00;100672.25;4844918;29;20458;-86
2021/07/11 00:39:46;;;;;;;12.65;7.70;;;;;;;14.48;100.00;100672.47;4844653;29;20026;-86
2021/07/11 00:42:16;;;;;;;9.50;6.82;;;;;;;14.49;100.00;100672.41;4844464;29;20134;-86
2021/07/11 00:44:42;;;;;;;12.88;8.38;;;;;;;14.37;100.00;100661.53;4861104;29;20486;-86
2021/07/11 00:47:08;;;;;;;10.27;7.03;;;;;;;14.49;100.00;100661.97;4844899;29;20031;-86
2021/07/11 00:49:33;;;;;;;10.13;7.03;;;;;;;14.53;100.00;100665.34;4849110;29;20045;-87
2021/07/11 00:51:58;;;;;;;10.18;6.75;;;;;;;14.57;100.00;100661.78;4844784;29;20026;-86
2021/07/11 00:54:24;;;;;;;10.05;7.10;;;;;;;14.63;100.00;100674.63;4844611;29;20120;-86
2021/07/11 00:56:49;;;;;;;11.20;7.03;;;;;;;14.59;100.00;100672.13;4844647;29;20087;-86
2021/07/11 00:59:19;;;;;;;12.07;6.93;;;;;;;14.60;100.00;100679.94;4844443;29;20037;-86
2021/07/11 01:01:56;;;;;;;10.93;6.90;;;;;;;14.64;100.00;100680.69;4844481;29;20029;-86
2021/07/11 01:04:32;;;;;;;8.45;6.38;;;;;;;14.66;100.00;100678.88;4844880;29;20029;-86
2021/07/11 01:07:02;;;;;;;15.48;6.65;;;;;;;14.67;100.00;100680.59;4844768;29;20487;-86
2021/07/11 01:09:33;;;;;;;10.85;7.00;;;;;;;14.49;100.00;100679.38;4847751;29;20043;-86
2021/07/11 01:12:04;;;;;;;12.93;6.55;;;;;;;14.64;100.00;100680.69;4848374;29;20022;-86
2021/07/11 01:14:30;;;;;;;9.43;6.00;;;;;;;14.76;100.00;100685.50;4864889;29;20033;-86
2021/07/11 01:16:58;;;;;;;9.98;6.40;;;;;;;14.83;100.00;100687.00;4848788;29;20367;-86
2021/07/11 01:19:29;;;;;;;9.60;6.25;;;;;;;14.93;100.00;100682.31;4848098;29;20033;-86
2021/07/11 01:21:59;;;;;;;11.10;6.43;;;;;;;15.01;100.00;100688.13;4847777;29;20068;-86
2021/07/11 01:24:29;;;;;;;8.88;5.78;;;;;;;14.94;100.00;100686.66;4848058;29;20030;-86
2021/07/11 01:26:56;;;;;;;10.00;6.07;;;;;;;14.88;100.00;100684.25;4847779;29;20029;-86
2021/07/11 01:29:23;;;;;;;8.45;5.47;;;;;;;14.91;100.00;100684.97;4847662;29;20021;-86
2021/07/11 01:31:49;;;;;;;8.27;5.32;;;;;;;15.09;100.00;100687.88;4848149;29;20113;-86
2021/07/11 01:34:15;;;;;;;8.60;5.53;;;;;;;15.08;100.00;100680.94;4871832;23;20554;-84
2021/07/11 01:36:41;;;;;;;8.95;5.47;;;;;;;15.16;100.00;100674.53;4868433;29;20133;-83
2021/07/11 01:39:07;;;;;;;11.88;5.45;;;;;;;15.24;100.00;100670.78;4852380;29;20085;-84
2021/07/11 01:41:33;;;;;;;9.93;5.85;;;;;;;15.25;100.00;100670.75;4852244;29;20081;-83
2021/07/11 01:43:59;;;;;;;8.23;5.43;;;;;;;15.21;100.00;100671.78;4851584;29;20033;-83
2021/07/11 01:46:26;;;;;;;8.23;5.60;;;;;;;15.28;100.00;100672.41;4868325;29;20029;-84
2021/07/11 01:48:52;;;;;;;10.10;5.50;;;;;;;15.26;100.00;100675.06;4851839;29;20030;-84
2021/07/11 01:51:22;;;;;;;8.05;5.38;;;;;;;15.30;100.00;100675.78;4868554;29;20037;-84
2021/07/11 01:53:50;;;;;;;9.93;5.57;;;;;;;15.32;100.00;100669.59;4851917;29;20036;-84
2021/07/11 01:56:16;;;;;;;10.60;4.90;;;;;;;15.24;100.00;100671.66;4851803;29;20044;-84
2021/07/11 01:58:42;;;;;;;8.38;5.53;;;;;;;15.27;100.00;100676.78;4868243;29;20108;-84
2021/07/11 02:01:11;;;;;;;11.65;5.28;;;;;;;15.30;100.00;100665.34;4851554;29;20045;-83
2021/07/11 02:03:39;;;;;;;7.68;5.50;;;;;;;15.35;100.00;100672.09;4868234;29;20025;-83
2021/07/11 02:06:13;;;;;;;8.73;5.82;;;;;;;15.25;100.00;100673.34;4851761;29;20033;-84
2021/07/11 02:08:41;;;;;;;9.20;5.63;;;;;;;15.23;100.00;100680.38;4852454;29;20026;-84
2021/07/11 02:11:08;;;;;;;8.07;5.30;;;;;;;15.23;100.00;100675.16;4852872;29;20489;-84
2021/07/11 02:13:48;;;;;;;8.38;5.32;;;;;;;15.22;100.00;100676.09;4851910;29;20064;-84
2021/07/11 02:16:35;;;;;;;7.95;5.15;;;;;;;15.16;100.00;100679.75;4851518;29;20034;-84
2021/07/11 02:19:01;;;;;;;8.20;5.32;;;;;;;15.17;100.00;100683.22;4851329;29;20049;-83
2021/07/11 02:21:28;;;;;;;9.13;5.72;;;;;;;15.27;100.00;100678.50;4850865;29;20086;-83
2021/07/11 02:23:55;;;;;;;10.15;5.55;;;;;;;15.29;100.00;100680.16;4851275;29;20026;-83
2021/07/11 02:26:25;;;;;;;9.48;5.93;;;;;;;15.29;100.00;100676.72;4850941;29;20022;-84
2021/07/11 02:28:54;;;;;;;8.65;5.63;;;;;;;15.24;100.00;100666.44;4852189;29;20080;-84
2021/07/11 02:31:27;;;;;;;10.93;6.10;;;;;;;15.29;100.00;100672.31;4866972;29;20025;-84
2021/07/11 02:33:58;;;;;;;8.27;5.05;;;;;;;15.29;100.00;100671.47;4868821;29;20026;-84
2021/07/11 02:36:29;;;;;;;11.60;4.90;;;;;;;15.31;100.00;100665.28;4851373;29;20102;-84
2021/07/11 02:39:15;;;;;;;9.07;5.13;;;;;;;15.34;100.00;100665.19;4850310;29;20030;-84
2021/07/11 02:41:52;;;;;;;8.40;5.05;;;;;;;15.26;100.00;100669.81;4851051;29;20074;-84
2021/07/11 02:44:19;;;;;;;10.30;5.13;;;;;;;15.29;100.00;100674.94;4867553;29;20048;-84
2021/07/11 02:46:48;;;;;;;8.82;5.07;;;;;;;15.26;100.00;100667.22;4867343;29;20033;-84
2021/07/11 02:49:17;;;;;;;7.40;5.60;;;;;;;15.28;100.00;100675.84;4868048;29;20464;-84
2021/07/11 02:51:48;;;;;;;9.35;5.72;;;;;;;15.22;100.00;100670.84;4850057;29;20082;-84
2021/07/11 02:54:17;;;;;;;7.03;4.60;;;;;;;15.27;100.00;100662.84;4866645;29;20026;-84
2021/07/11 02:56:46;;;;;;;8.55;6.00;;;;;;;15.22;100.00;100663.00;4850499;29;20491;-84
2021/07/11 02:59:13;;;;;;;8.65;5.45;;;;;;;15.20;100.00;100655.22;4849923;29;20025;-84
2021/07/11 03:01:42;;;;;;;9.88;6.05;;;;;;;15.20;100.00;100663.06;4850578;29;20025;-84
2021/07/11 03:04:11;;;;;;;9.93;5.88;;;;;;;15.24;100.00;100658.59;4850412;29;20036;-84
2021/07/11 03:06:37;;;;;;;8.55;5.55;;;;;;;15.26;100.00;100654.16;4850578;29;20029;-84
2021/07/11 03:09:04;;;;;;;8.15;5.38;;;;;;;15.19;100.00;100658.75;4866794;29;20490;-84
2021/07/11 03:11:31;;;;;;;10.35;5.68;;;;;;;15.18;100.00;100656.19;4850381;29;20124;-84
2021/07/11 03:13:59;;;;;;;8.75;6.20;;;;;;;15.24;100.00;100649.88;4866892;29;20041;-84
2021/07/11 03:16:25;;;;;;;8.88;6.18;;;;;;;15.19;100.00;100661.34;4849727;29;20032;-84
2021/07/11 03:18:55;;;;;;;9.10;5.82;;;;;;;15.17;100.00;100657.09;4850228;29;20029;-84
2021/07/11 03:21:24;;;;;;;8.32;6.18;;;;;;;15.18;100.00;100658.81;4850086;29;20129;-84
2021/07/11 03:23:52;;;;;;;8.18;5.75;;;;;;;15.21;100.00;100656.09;4849417;29;20073;-84
2021/07/11 03:26:23;;;;;;;9.48;5.63;;;;;;;15.17;100.00;100660.56;4849924;29;20026;-84
2021/07/11 03:28:49;;;;;;;8.13;5.40;;;;;;;15.23;100.00;100653.41;4850169;29;20486;-84
2021/07/11 03:31:16;;;;;;;11.18;6.63;;;;;;;15.22;100.00;100657.78;4866654;29;20030;-84
2021/07/11 03:33:46;;;;;;;18.33;5.85;;;;;;;15.18;100.00;100656.19;4850539;29;20029;-84
2021/07/11 03:36:17;;;;;;;8.48;5.35;;;;;;;15.20;100.00;100659.59;4850763;29;20029;-84
2021/07/11 03:38:50;;;;;;;8.32;5.68;;;;;;;15.22;100.00;100660.41;4850356;29;20112;-84
2021/07/11 03:41:20;;;;;;;8.60;5.80;;;;;;;15.31;100.00;100652.22;4851090;29;20062;-84
2021/07/11 03:43:52;;;;;;;7.45;5.45;;;;;;;15.30;100.00;100662.72;4850966;29;20063;-84
2021/07/11 03:46:22;;;;;;;8.10;5.40;;;;;;;15.36;100.00;100654.66;4850357;29;20103;-84
2021/07/11 03:48:52;;;;;;;8.43;5.68;;;;;;;15.31;100.00;100660.06;4850956;29;20080;-84
2021/07/11 03:51:23;;;;;;;9.10;5.55;;;;;;;15.37;100.00;100656.38;4850281;29;20025;-84
2021/07/11 03:53:53;;;;;;;9.50;6.32;;;;;;;15.39;100.00;100655.44;4850026;29;20087;-84
2021/07/11 03:56:29;;;;;;;9.65;6.35;;;;;;;15.38;100.00;100660.69;4849554;29;20033;-84
2021/07/11 03:59:01;;;;;;;8.40;5.97;;;;;;;15.49;100.00;100658.56;4849269;29;20033;-84
2021/07/11 04:01:33;;;;;;;8.95;5.70;;;;;;;15.47;100.00;100659.50;4849474;29;20517;-84
2021/07/11 04:04:01;;;;;;;9.48;5.75;;;;;;;15.52;100.00;100665.44;4849302;29;20124;-84
2021/07/11 04:06:30;;;;;;;9.80;5.68;;;;;;;15.56;100.00;100661.78;4849285;29;20033;-84
2021/07/11 04:09:03;;;;;;;9.82;6.07;;;;;;;15.55;100.00;100660.09;4849446;29;20537;-84
2021/07/11 04:11:32;;;;;;;9.90;5.65;;;;;;;15.54;100.00;100667.06;4849765;29;20033;-84
2021/07/11 04:13:57;;;;;;;9.88;5.68;;;;;;;15.48;100.00;100664.66;4849085;29;20102;-84
2021/07/11 04:16:29;;;;;;;8.05;5.75;;;;;;;15.49;100.00;100663.78;4848091;29;20444;-84
2021/07/11 04:18:57;;;;;;;8.65;5.38;;;;;;;15.55;100.00;100670.56;4847712;29;20032;-84
2021/07/11 04:21:27;;;;;;;13.95;6.00;;;;;;;15.56;100.00;100677.47;4848076;29;20409;-84
2021/07/11 04:23:55;;;;;;;10.70;5.57;;;;;;;15.59;100.00;100672.13;4847763;29;20052;-84
2021/07/11 04:26:23;;;;;;;9.38;6.10;;;;;;;15.62;100.00;100666.78;4848451;29;20029;-84
2021/07/11 04:28:48;;;;;;;8.18;5.68;;;;;;;15.54;100.00;100674.06;4848870;29;20041;-84
2021/07/11 04:31:14;;;;;;;9.50;5.70;;;;;;;15.46;100.00;100671.72;4848468;29;20026;-84
2021/07/11 04:33:42;;;;;;;9.20;5.78;;;;;;;15.55;100.00;100675.78;4848726;29;20546;-84
2021/07/11 04:36:08;;;;;;;10.10;5.90;;;;;;;15.64;100.00;100675.44;4849018;29;20065;-84
2021/07/11 04:38:34;;;;;;;12.95;6.40;;;;;;;15.71;100.00;100671.69;4849222;29;20044;-84
2021/07/11 04:41:02;;;;;;;8.93;5.93;;;;;;;15.66;100.00;100668.38;4865440;29;20403;-84
2021/07/11 04:43:27;;;;;;;10.80;6.15;;;;;;;15.71;100.00;100670.84;4850271;29;20033;-84
2021/07/11 04:45:52;;;;;;;13.57;6.70;;;;;;;15.64;100.00;100675.44;4851815;29;20040;-84
2021/07/11 04:48:18;;;;;;;10.00;6.25;;;;;;;15.70;100.00;100676.97;4852116;29;20056;-84
2021/07/11 04:50:47;;;;;;;9.32;5.45;;;;;;;15.81;100.00;100680.91;4851358;29;20021;-84
2021/07/11 04:53:14;;;;;;;9.85;6.28;;;;;;;15.87;100.00;100674.59;4851493;29;20040;-84
2021/07/11 04:55:43;;;;;;;10.07;6.35;;;;;;;15.89;100.00;100680.63;4851734;29;20038;-84
2021/07/11 04:58:08;;;;;;;8.95;5.97;;;;;;;15.90;100.00;100682.31;4852292;29;20025;-84
2021/07/11 05:00:34;;;;;;;10.50;6.35;;;;;;;15.90;100.00;100689.31;4851966;29;20036;-84
2021/07/11 05:02:59;;;;;;;11.55;5.68;;;;;;;15.97;100.00;100691.63;4852515;29;20124;-84
2021/07/11 05:05:25;;;;;;;10.90;5.88;;;;;;;15.92;100.00;100687.47;4852085;29;20032;-84
2021/07/11 05:07:50;;;;;;;10.48;5.63;;;;;;;16.05;100.00;100692.19;4852046;29;20459;-84
2021/07/11 05:10:15;;;;;;;9.93;5.40;;;;;;;16.03;100.00;100690.53;4851961;29;20078;-84
2021/07/11 05:12:41;;;;;;;11.20;6.38;;;;;;;16.06;100.00;100696.50;4852824;29;20033;-84
2021/07/11 05:15:07;;;;;;;9.23;5.60;;;;;;;16.09;100.00;100696.38;4852563;29;20088;-84
2021/07/11 05:17:32;;;;;;;8.02;4.95;;;;;;;16.12;100.00;100703.25;4852177;29;20074;-84
2021/07/11 05:20:06;;;;;;;9.90;5.55;;;;;;;16.12;100.00;100703.25;4851799;29;20025;-84
2021/07/11 05:22:32;;;;;;;10.77;5.97;;;;;;;16.25;100.00;100707.09;4852644;29;20487;-84
2021/07/11 05:24:57;;;;;;;9.48;4.90;;;;;;;16.16;100.00;100698.75;4851411;29;20037;-84
2021/07/11 05:27:22;;;;;;;10.30;5.78;;;;;;;16.24;100.00;100702.78;4851573;29;20032;-84
2021/07/11 05:29:51;;;;;;;8.35;6.05;;;;;;;16.34;100.00;100698.88;4851052;29;20040;-84
2021/07/11 05:32:16;;;;;;;8.40;5.07;;;;;;;16.30;100.00;100702.53;4850839;29;20066;-84
2021/07/11 05:34:42;;;;;;;9.10;5.70;;;;;;;16.31;100.00;100703.38;4851208;29;20037;-84
2021/07/11 05:37:07;;;;;;;14.57;6.22;;;;;;;16.40;100.00;100707.41;4851082;29;20030;-84
2021/07/11 05:39:32;;;;;;;8.15;5.80;;;;;;;16.62;100.00;100704.78;4850597;29;20037;-84
2021/07/11 05:41:58;;;;;;;7.63;5.28;;;;;;;16.60;100.00;100714.47;4851362;29;20467;-84
2021/07/11 05:44:23;;;;;;;9.50;5.20;;;;;;;16.71;100.00;100707.03;4850951;29;20093;-84
2021/07/11 05:46:48;;;;;;;8.30;5.20;;;;;;;16.75;100.00;100709.50;4850902;29;20189;-84
2021/07/11 05:49:17;;;;;;;9.02;5.63;;;;;;;16.76;100.00;100707.72;4867596;29;20048;-84
2021/07/11 05:51:42;;;;;;;8.32;5.38;;;;;;;16.75;100.00;100712.13;4850883;29;20032;-85
2021/07/11 05:54:07;;;;;;;12.25;6.15;;;;;;;16.80;100.00;100710.13;4849959;29;20029;-85
2021/07/11 05:56:33;;;;;;;12.15;5.80;;;;;;;16.94;100.00;100706.09;4850242;29;20037;-84
2021/07/11 05:58:58;;;;;;;10.23;6.10;;;;;;;16.77;100.00;100710.25;4850640;29;20029;-84
2021/07/11 06:01:23;;;;;;;9.27;5.38;;;;;;;16.71;100.00;100712.25;4851006;29;20028;-84
2021/07/11 06:03:49;;;;;;;12.95;6.13;;;;;;;16.95;100.00;100713.03;4850607;29;20021;-84
2021/07/11 06:06:14;;;;;;;7.82;5.20;;;;;;;16.94;100.00;100712.19;4850203;29;20076;-84
2021/07/11 06:08:39;;;;;;;8.65;5.38;;;;;;;17.05;100.00;100706.47;4867588;29;20029;-84
2021/07/11 06:11:05;;;;;;;8.93;5.53;;;;;;;17.02;100.00;100711.84;4850755;29;20181;-85
2021/07/11 06:13:33;;;;;;;7.38;5.15;;;;;;;17.22;100.00;100709.25;4849922;29;20040;-84
2021/07/11 06:15:59;;;;;;;8.05;4.93;;;;;;;17.33;100.00;100713.16;4850058;29;20029;-84
2021/07/11 06:18:24;;;;;;;8.10;4.88;;;;;;;17.45;100.00;100705.59;4849703;29;20393;-84
2021/07/11 06:20:49;;;;;;;8.07;5.00;;;;;;;17.35;100.00;100712.16;4850527;29;20029;-84
2021/07/11 06:23:18;;;;;;;7.72;4.80;;;;;;;17.24;100.00;100712.66;4850260;29;20026;-85
2021/07/11 06:25:43;;;;;;;6.85;4.65;;;;;;;17.45;100.00;100710.00;4850293;29;20033;-84
2021/07/11 06:28:09;;;;;;;8.48;5.38;;;;;;;17.49;100.00;100711.56;4850800;29;20120;-84
2021/07/11 06:30:34;;;;;;;11.68;5.32;;;;;;;17.69;100.00;100708.91;4850821;29;20029;-85
2021/07/11 06:32:59;;;;;;;8.52;4.93;;;;;;;17.69;100.00;100708.03;4848921;29;20064;-84
2021/07/11 06:35:25;;;;;;;8.13;5.07;;;;;;;17.71;100.00;100707.06;4849148;29;20036;-85
2021/07/11 06:37:56;;;;;;;9.00;4.88;;;;;;;17.62;100.00;100711.88;4848560;29;20068;-85
2021/07/11 06:40:24;;;;;;;9.43;5.03;;;;;;;17.69;100.00;100708.91;4848748;29;20036;-84
2021/07/11 06:42:49;;;;;;;7.70;4.95;;;;;;;17.81;100.00;100711.91;4849735;29;20022;-84
2021/07/11 06:45:15;;;;;;;7.30;4.57;;;;;;;17.68;100.00;100719.47;4848636;29;20033;-84
2021/07/11 06:47:41;;;;;;;12.48;5.15;;;;;;;17.49;100.00;100716.81;4847406;29;20029;-84
2021/07/11 06:50:09;;;;;;;9.52;5.45;;;;;;;17.38;100.00;100724.31;4847828;29;20120;-84
2021/07/11 06:52:35;;;;;;;10.45;5.68;;;;;;;17.35;100.00;100725.28;4848987;29;20090;-84
2021/07/11 06:55:10;;;;;;;9.32;5.45;;;;;;;17.45;100.00;100718.72;4847943;29;20033;-85
2021/07/11 06:57:38;;;;;;;;;;;;;;;17.46;100.00;100719.59;4848861;29;20036;-84
2021/07/11 07:00:05;;;;;;;6.75;4.60;;;;;;;17.42;100.00;100726.72;4847949;29;19916;-84
2021/07/11 07:02:31;;;;;;;11.45;5.28;;;;;;;17.30;100.00;100727.25;4847382;29;20108;-85
2021/07/11 07:04:56;;;;;;;9.02;5.65;;;;;;;17.22;100.00;100719.72;4847151;29;20068;-85
2021/07/11 07:07:22;;;;;;;13.50;5.57;;;;;;;17.44;100.00;100726.66;4848665;29;20033;-85
2021/07/11 07:09:47;;;;;;;7.97;5.25;;;;;;;17.45;100.00;100726.56;4846520;29;20466;-85
2021/07/11 07:12:20;;;;;;;8.77;5.20;;;;;;;17.48;100.00;100723.81;4846143;29;20038;-85
2021/07/11 07:14:49;;;;;;;8.70;5.23;;;;;;;17.51;100.00;100728.06;4830905;29;20041;-85
2021/07/11 07:17:17;;;;;;;9.60;5.20;;;;;;;17.70;100.00;100725.47;4846333;29;20284;-84
2021/07/11 07:19:42;;;;;;;9.95;5.00;;;;;;;17.65;100.00;100733.56;4846092;29;20030;-84
2021/07/11 07:22:08;;;;;;;10.18;4.88;;;;;;;17.70;100.00;100728.09;4846209;29;20028;-84
2021/07/11 07:24:36;;;;;;;9.07;5.13;;;;;;;17.65;100.00;100723.06;4845954;29;20108;-84
2021/07/11 07:27:01;;;;;;;7.75;5.25;;;;;;;17.65;100.00;100723.06;4846242;29;20025;-84
2021/07/11 07:29:26;;;;;;;9.48;5.65;;;;;;;17.75;100.00;100728.75;4845670;29;20089;-84
2021/07/11 07:31:52;;;;;;;8.70;5.38;;;;;;;17.92;100.00;100725.41;4845308;29;20025;-84
2021/07/11 07:34:18;;;;;;;9.15;4.80;;;;;;;17.74;100.00;100728.84;4845290;29;20039;-84
2021/07/11 07:36:44;;;;;;;8.73;5.47;;;;;;;17.85;100.00;100723.97;4869227;24;20049;-85
2021/07/11 07:39:09;;;;;;;8.45;5.40;;;;;;;18.01;100.00;100732.84;4847257;29;20029;-85
2021/07/11 07:41:34;;;;;;;8.98;5.28;;;;;;;18.04;100.00;100724.84;4846709;29;20021;-85
2021/07/11 07:43:59;;;;;;;9.20;5.55;;;;;;;17.98;100.00;100724.25;4846779;29;20029;-85
2021/07/11 07:46:25;;;;;;;7.38;4.90;;;;;;;18.22;100.00;100722.25;4863300;29;20040;-85
2021/07/11 07:48:50;;;;;;;8.57;4.78;;;;;;;18.29;100.00;100723.69;4863491;29;20134;-85
2021/07/11 07:51:15;;;;;;;11.98;5.65;;;;;;;18.53;100.00;100730.34;4845991;29;20505;-85
2021/07/11 07:53:41;;;;;;;13.57;5.38;;;;;;;20.52;100.00;100729.63;4863133;29;20032;-85
2021/07/11 07:56:06;;;;;;;9.00;4.78;;;;;;;22.17;85.97;100729.41;4862703;29;20086;-85
2021/07/11 07:58:31;;;;;;;8.85;4.45;;;;;;;21.70;86.06;100721.78;4847260;29;20117;-85
2021/07/11 08:00:56;;;;;;;7.30;5.22;;;;;;;22.05;81.46;100722.22;4847591;29;20094;-83
2021/07/11 08:03:22;;;;;;;8.20;4.43;;;;;;;21.78;83.40;100720.38;4846725;29;20037;-85
2021/07/11 08:05:47;;;;;;;8.38;5.50;;;;;;;22.11;78.08;100726.28;4862646;29;20037;-83
2021/07/11 08:08:13;;;;;;;9.57;4.85;;;;;;;22.31;79.54;100728.50;4848872;29;20029;-86
2021/07/11 08:10:38;;;;;;;8.15;4.40;;;;;;;22.17;79.40;100732.03;4865121;29;20060;-84
2021/07/11 08:13:04;;;;;;;10.93;4.72;;;;;;;22.39;76.83;100728.03;4846917;29;20061;-85
2021/07/11 08:15:31;;;;;;;8.88;4.70;;;;;;;22.47;78.15;100728.34;4846672;29;20036;-85
2021/07/11 08:17:56;;;;;;;10.07;4.97;;;;;;;23.05;75.98;100723.66;4846192;29;20025;-85
2021/07/11 08:20:22;;;;;;;9.75;4.78;;;;;;;23.78;75.17;100713.28;4847161;29;20386;-85
2021/07/11 08:22:49;;;;;;;7.25;4.55;;;;;;;23.19;73.71;100724.41;4846729;29;20490;-86
2021/07/11 08:25:14;;;;;;;6.45;4.20;;;;;;;22.35;75.72;100722.06;4848314;29;20069;-86
2021/07/11 08:27:41;;;;;;;8.80;4.60;;;;;;;22.97;72.73;100726.84;4848644;29;20037;-86
2021/07/11 08:30:09;;;;;;;9.60;4.50;;;;;;;22.36;75.98;100720.28;4848207;29;20471;-85
2021/07/11 08:32:34;;;;;;;7.47;4.50;;;;;;;23.74;69.98;100710.94;4846544;29;20072;-86
2021/07/11 08:35:00;;;;;;;6.95;4.30;;;;;;;23.11;72.82;100729.38;4864975;29;20029;-86
2021/07/11 08:37:25;;;;;;;6.07;3.70;;;;;;;22.06;74.68;100716.81;4849493;29;20068;-85
2021/07/11 08:39:51;;;;;;;9.57;3.83;;;;;;;22.26;78.09;100720.00;4849082;29;20112;-86
2021/07/11 08:42:18;;;;;;;11.70;4.38;;;;;;;21.71;82.83;100718.22;4846445;29;20057;-86
2021/07/11 08:44:44;;;;;;;7.10;4.28;;;;;;;21.77;83.42;100718.69;4847302;29;20395;-86
2021/07/11 08:47:09;;;;;;;8.73;3.97;;;;;;;21.87;83.33;100721.59;4848279;29;20037;-86
2021/07/11 08:49:34;;;;;;;7.05;4.68;;;;;;;24.02;74.04;100721.28;4846833;29;20402;-85
2021/07/11 08:52:02;;;;;;;9.43;4.60;;;;;;;23.65;71.51;100723.88;4862403;29;20108;-85
2021/07/11 08:54:27;;;;;;;9.45;4.53;;;;;;;23.52;69.17;100725.69;4849011;29;20455;-86
2021/07/11 08:57:11;;;;;;;7.78;3.80;;;;;;;24.37;68.47;100728.47;4846398;29;20022;-85
2021/07/11 08:59:38;;;;;;;;;;;;;;;24.94;67.82;100724.25;4848653;29;20030;-85
2021/07/11 09:02:04;;;;;;;7.55;3.92;;;;;;;24.59;64.99;100725.13;4846341;29;19963;-84
2021/07/11 09:04:40;;;;;;;7.18;3.65;;;;;;;25.41;61.14;100723.31;4861408;29;20109;-84
2021/07/11 09:07:06;;;;;;;8.98;4.03;;;;;;;25.25;62.03;100722.81;4844429;29;20048;-85
2021/07/11 09:09:37;;;;;;;6.20;3.78;;;;;;;25.03;62.55;100721.78;4844420;29;20116;-85
2021/07/11 09:12:06;;;;;;;7.68;3.58;;;;;;;25.31;62.65;100710.84;4844411;29;20030;-85
2021/07/11 09:14:43;;;;;;;7.85;3.30;;;;;;;25.16;62.85;100716.41;4844971;29;20089;-85
2021/07/11 09:17:10;;;;;;;8.50;3.72;;;;;;;24.65;63.21;100714.03;4844491;29;20030;-84
2021/07/11 09:19:41;;;;;;;8.35;4.03;;;;;;;25.07;67.77;100717.06;4844848;29;20036;-84
2021/07/11 09:22:08;;;;;;;7.38;3.78;;;;;;;25.17;60.81;100703.97;4846100;29;20021;-84
2021/07/11 09:24:35;;;;;;;13.15;3.60;;;;;;;25.40;58.27;100703.03;4845363;29;20033;-85
2021/07/11 09:27:11;;;;;;;6.63;3.65;;;;;;;25.29;60.08;100708.31;4845177;29;20487;-85
2021/07/11 09:29:38;;;;;;;7.38;3.53;;;;;;;25.11;60.55;100701.75;4847371;29;20034;-85
2021/07/11 09:32:05;;;;;;;6.90;3.55;;;;;;;25.53;57.70;100704.72;4848691;29;20068;-85
2021/07/11 09:34:32;;;;;;;6.82;3.78;;;;;;;25.98;59.30;100710.03;4848323;29;20036;-84
2021/07/11 09:37:03;;;;;;;8.95;3.60;;;;;;;25.75;59.65;100706.53;4848714;29;20033;-84
2021/07/11 09:39:29;;;;;;;10.25;3.78;;;;;;;26.22;54.12;100710.69;4865588;29;20036;-85
2021/07/11 09:43:11;;;;;;;;;;;;;;;;;;;;;
2021/07/11 09:45:42;;;;;;;8.77;4.20;;;;;;;26.38;53.44;100702.28;4883755;29;20029;-85
2021/07/11 09:49:09;;;;;;;7.38;4.47;;;;;;;26.35;54.40;100702.53;4847693;29;20041;-85
2021/07/11 09:52:19;;;;;;;6.82;3.90;;;;;;;26.77;53.33;100702.66;4855548;29;20032;-86
2021/07/11 09:54:54;;;;;;;7.90;4.25;;;;;;;26.03;56.39;100703.38;4832052;29;20037;-85
2021/07/11 09:57:30;;;;;;;9.75;4.35;;;;;;;26.02;56.14;100701.69;4847818;29;20026;-84
2021/07/11 10:00:10;;;;;;;9.50;4.68;;;;;;;26.57;56.08;100701.63;4866578;29;20100;-83
2021/07/11 10:02:36;;;;;;;7.43;4.38;;;;;;;26.36;55.40;100707.75;4848010;29;20024;-84
2021/07/11 10:05:02;;;;;;;9.68;4.47;;;;;;;27.19;51.99;100702.69;4847391;29;20025;-84
2021/07/11 10:07:28;;;;;;;7.88;4.30;;;;;;;27.10;53.10;100701.63;4864730;29;20053;-83
2021/07/11 10:09:53;;;;;;;9.90;4.10;;;;;;;27.62;51.44;100690.94;4850232;29;20527;-83
2021/07/11 10:12:19;;;;;;;11.80;4.38;;;;;;;27.00;52.94;100693.56;4848969;29;20053;-83
2021/07/11 10:14:44;;;;;;;8.63;4.33;;;;;;;27.50;51.60;100690.22;4849859;29;20025;-82
2021/07/11 10:17:09;;;;;;;9.93;4.10;;;;;;;27.51;53.73;100689.22;4868098;29;20270;-83
2021/07/11 10:19:35;;;;;;;6.82;4.07;;;;;;;27.62;50.31;100690.94;4874043;29;20698;-84
2021/07/11 10:22:14;;;;;;;6.38;3.75;;;;;;;27.71;50.13;100692.78;4869589;29;20029;-83
2021/07/11 10:24:45;;;;;;;12.45;3.75;;;;;;;27.19;51.39;100703.53;4848283;29;20065;-83
2021/07/11 10:27:23;;;;;;;8.70;3.88;;;;;;;26.91;50.95;100698.81;4865839;29;20037;-83
2021/07/11 10:29:51;;;;;;;10.55;3.97;;;;;;;26.27;52.94;100697.88;4848832;29;20465;-83
2021/07/11 10:32:22;;;;;;;6.57;3.72;;;;;;;26.93;52.51;100708.34;4864833;29;20479;-83
2021/07/11 10:34:47;;;;;;;9.38;4.30;;;;;;;26.53;52.68;100695.72;4865803;29;20033;-84
2021/07/11 10:37:22;;;;;;;7.20;3.83;;;;;;;26.10;53.76;100701.06;4849662;29;20074;-82
2021/07/11 10:39:51;;;;;;;8.77;3.80;;;;;;;27.38;50.06;100697.44;4851160;29;20029;-82
2021/07/11 10:42:27;;;;;;;6.35;3.90;;;;;;;27.68;52.44;100693.06;4849413;29;20037;-82
2021/07/11 10:45:02;;;;;;;10.38;4.72;;;;;;;27.68;49.45;100701.03;4866808;29;20030;-83
2021/07/11 10:47:27;;;;;;;7.60;3.85;;;;;;;26.86;51.97;100701.88;4849595;29;20600;-84
2021/07/11 10:49:53;;;;;;;9.07;4.10;;;;;;;26.56;53.65;100705.28;4867464;29;20033;-83
2021/07/11 10:52:26;;;;;;;6.78;3.63;;;;;;;26.71;55.21;100700.50;4849525;29;20030;-82
2021/07/11 10:54:59;;;;;;;8.77;4.00;;;;;;;27.43;51.81;100700.56;4864992;29;20037;-83
2021/07/11 10:57:36;;;;;;;7.72;3.65;;;;;;;28.49;48.57;100701.00;4848467;29;20109;-83
2021/07/11 11:00:18;;;;;;;6.72;3.60;;;;;;;27.54;50.47;100702.28;4850244;29;20036;-84
2021/07/11 11:02:46;;;;;;;9.30;4.32;;;;;;;25.80;53.15;100704.31;4864605;29;20158;-84
2021/07/11 11:05:16;;;;;;;7.85;4.18;;;;;;;26.95;47.90;100705.56;4846585;29;20097;-83
2021/07/11 11:07:51;;;;;;;10.63;4.47;;;;;;;27.15;47.22;100695.91;4846675;29;20032;-84
2021/07/11 11:10:29;;;;;;;8.00;3.90;;;;;;;28.22;47.76;100697.13;4846658;29;20077;-84
2021/07/11 11:13:28;;;;;;;7.90;4.07;;;;;;;26.47;53.33;100700.69;4846091;29;20036;-84
2021/07/11 11:16:14;;;;;;;9.98;4.45;;;;;;;27.67;46.18;100700.22;4846499;29;20065;-84
2021/07/11 11:18:40;;;;;;;10.45;4.10;;;;;;;28.16;44.27;100697.69;4863231;29;20025;-84
2021/07/11 11:21:12;;;;;;;6.43;3.55;;;;;;;27.81;46.54;100693.72;4846364;29;20421;-84
2021/07/11 11:23:40;;;;;;;5.80;3.72;;;;;;;27.56;46.81;100700.31;4862605;29;20025;-84
2021/07/11 11:26:08;;;;;;;5.78;3.55;;;;;;;27.01;46.86;100708.56;4862614;29;20029;-84